Time;durP1;ratioP1;P1;durP2;ratioP2;P2;SDS_P1;SDS_P2;PMS_P1;PMS_P2;Temp;Humidity;BMP_temperature;BMP_pressure;BME280_temperature;BME280_humidity;BME280_pressure;Samples;Min_cycle;Max_cycle;Signal;HPM_P1;HPM_P2
2023/09/20 00:00:32;;;;;;;11.30;4.47;;;17.30;99.90;;;;;;5064016;28;20036;-55
2023/09/20 00:02:58;;;;;;;15.63;4.70;;;17.30;99.90;;;;;;5060660;28;20440;-54
2023/09/20 00:05:24;;;;;;;20.27;5.63;;;17.30;99.90;;;;;;5061735;28;20102;-56
2023/09/20 00:07:56;;;;;;;12.25;5.10;;;17.30;99.90;;;;;;5060572;28;20530;-55
2023/09/20 00:10:24;;;;;;;12.57;5.50;;;17.30;99.90;;;;;;5068924;28;20074;-54
2023/09/20 00:12:50;;;;;;;17.63;5.10;;;17.30;99.90;;;;;;5047411;28;20048;-56
2023/09/20 00:15:16;;;;;;;14.05;4.80;;;17.30;99.90;;;;;;5058905;28;20387;-56
2023/09/20 00:17:43;;;;;;;13.90;4.93;;;17.30;99.90;;;;;;5040785;28;20309;-56
2023/09/20 00:20:12;;;;;;;14.00;4.57;;;17.30;99.90;;;;;;5060979;28;20044;-56
2023/09/20 00:22:44;;;;;;;11.38;5.15;;;17.30;99.90;;;;;;5058644;28;20102;-57
2023/09/20 00:25:11;;;;;;;14.52;5.32;;;17.30;99.90;;;;;;5059108;28;20131;-56
2023/09/20 00:27:38;;;;;;;14.95;5.30;;;17.30;99.90;;;;;;5041558;28;20041;-55
2023/09/20 00:30:14;;;;;;;13.98;5.30;;;17.30;99.90;;;;;;5058803;28;20044;-57
2023/09/20 00:32:43;;;;;;;15.80;4.72;;;17.30;99.90;;;;;;5043439;28;20048;-56
2023/09/20 00:35:18;;;;;;;14.02;4.78;;;17.30;99.90;;;;;;5049579;28;20108;-56
2023/09/20 00:37:45;;;;;;;13.63;5.38;;;17.30;99.90;;;;;;5058689;28;20032;-57
2023/09/20 00:40:21;;;;;;;17.15;5.05;;;17.30;99.90;;;;;;5042230;28;20039;-58
2023/09/20 00:42:52;;;;;;;12.82;4.43;;;17.30;99.90;;;;;;5063669;28;20106;-57
2023/09/20 00:45:19;;;;;;;15.52;5.40;;;17.30;99.90;;;;;;5060293;28;20085;-57
2023/09/20 00:47:55;;;;;;;15.75;4.50;;;17.30;99.90;;;;;;5051760;28;20079;-57
2023/09/20 00:50:21;;;;;;;18.63;5.38;;;17.30;99.90;;;;;;5042943;28;20125;-57
2023/09/20 00:52:51;;;;;;;14.60;5.03;;;17.30;99.90;;;;;;5059359;28;20051;-58
2023/09/20 00:55:20;;;;;;;17.58;5.15;;;17.30;99.90;;;;;;5061189;28;20044;-55
2023/09/20 00:57:48;;;;;;;13.98;5.65;;;17.30;99.90;;;;;;5042799;28;20392;-55
2023/09/20 01:00:21;;;;;;;11.13;4.43;;;17.30;99.90;;;;;;5060094;28;20117;-54
2023/09/20 01:02:52;;;;;;;15.13;4.67;;;17.30;99.90;;;;;;5026625;28;20093;-56
2023/09/20 01:05:21;;;;;;;13.40;4.97;;;17.30;99.90;;;;;;5064563;28;20036;-56
2023/09/20 01:07:52;;;;;;;16.88;5.22;;;17.40;99.90;;;;;;5047047;28;20048;-57
2023/09/20 01:10:22;;;;;;;13.95;5.55;;;17.30;99.90;;;;;;5045881;28;20048;-55
2023/09/20 01:12:54;;;;;;;14.38;5.00;;;17.40;99.90;;;;;;5065634;28;20041;-56
2023/09/20 01:15:23;;;;;;;22.13;7.22;;;17.30;99.90;;;;;;5044076;28;20037;-56
2023/09/20 01:17:53;;;;;;;16.73;6.15;;;17.30;99.90;;;;;;5060245;28;20127;-55
2023/09/20 01:20:20;;;;;;;15.43;5.78;;;17.40;99.90;;;;;;5065423;28;20032;-55
2023/09/20 01:22:47;;;;;;;11.40;5.28;;;17.40;99.90;;;;;;5067798;28;20740;-56
2023/09/20 01:25:24;;;;;;;14.10;5.72;;;17.30;99.90;;;;;;5066493;28;20124;-56
2023/09/20 01:27:54;;;;;;;16.33;5.65;;;17.40;99.90;;;;;;5060109;28;20037;-55
2023/09/20 01:30:25;;;;;;;13.20;5.30;;;17.30;99.90;;;;;;5051187;28;20032;-55
2023/09/20 01:32:55;;;;;;;13.32;5.18;;;17.30;99.90;;;;;;5047873;28;20654;-54
2023/09/20 01:35:22;;;;;;;20.95;5.35;;;17.40;99.90;;;;;;5059306;28;20060;-56
2023/09/20 01:37:51;;;;;;;12.98;5.53;;;17.30;99.90;;;;;;5076717;28;20044;-56
2023/09/20 01:40:18;;;;;;;13.77;4.85;;;17.40;99.90;;;;;;5042483;28;20055;-57
2023/09/20 01:42:45;;;;;;;13.02;5.05;;;17.40;99.90;;;;;;5066443;28;20048;-56
2023/09/20 01:45:16;;;;;;;15.20;5.60;;;17.40;99.90;;;;;;5058259;28;20044;-57
2023/09/20 01:47:47;;;;;;;14.73;4.50;;;17.40;99.90;;;;;;5042445;28;20052;-57
2023/09/20 01:50:19;;;;;;;11.95;5.15;;;17.40;99.90;;;;;;5064677;28;20067;-57
2023/09/20 01:52:49;;;;;;;12.43;4.78;;;17.40;99.90;;;;;;5065309;28;20124;-57
2023/09/20 01:55:18;;;;;;;14.38;4.65;;;17.40;99.90;;;;;;5045608;28;20162;-57
2023/09/20 01:57:47;;;;;;;12.95;4.63;;;17.40;99.90;;;;;;5062236;28;20036;-57
2023/09/20 02:00:30;;;;;;;14.82;4.90;;;17.40;99.90;;;;;;5066434;28;20046;-57
2023/09/20 02:02:57;;;;;;;13.73;5.28;;;17.40;99.90;;;;;;5066077;28;20075;-57
2023/09/20 02:05:24;;;;;;;13.43;4.95;;;17.40;99.90;;;;;;5066410;28;20137;-57
2023/09/20 02:07:56;;;;;;;13.85;4.88;;;17.40;99.90;;;;;;5060071;28;20041;-57
2023/09/20 02:10:22;;;;;;;17.88;4.63;;;17.40;99.90;;;;;;5059050;28;20048;-57
2023/09/20 02:12:51;;;;;;;11.10;4.75;;;17.50;99.90;;;;;;5062170;28;20045;-57
2023/09/20 02:15:18;;;;;;;14.25;4.47;;;17.50;99.90;;;;;;5080934;28;20032;-58
2023/09/20 02:17:44;;;;;;;12.57;5.13;;;17.40;99.90;;;;;;5059554;28;20035;-57
2023/09/20 02:20:12;;;;;;;14.38;4.78;;;17.50;99.90;;;;;;5060791;28;20036;-57
2023/09/20 02:22:39;;;;;;;20.15;5.88;;;17.50;99.90;;;;;;5057079;28;20494;-57
2023/09/20 02:25:12;;;;;;;15.10;4.43;;;17.50;99.90;;;;;;5064286;28;20048;-57
2023/09/20 02:27:43;;;;;;;15.80;5.75;;;17.50;99.90;;;;;;5062659;28;20041;-57
2023/09/20 02:30:16;;;;;;;11.88;4.40;;;17.50;99.90;;;;;;5085726;28;20079;-57
2023/09/20 02:32:52;;;;;;;15.27;5.18;;;17.50;99.90;;;;;;5060612;28;20033;-57
2023/09/20 02:35:22;;;;;;;15.10;5.68;;;17.50;99.90;;;;;;5062227;28;20480;-58
2023/09/20 02:37:49;;;;;;;16.95;5.05;;;17.50;99.90;;;;;;5065107;28;20082;-57
2023/09/20 02:40:15;;;;;;;16.73;4.93;;;17.50;99.90;;;;;;5067506;28;20483;-57
2023/09/20 02:42:43;;;;;;;16.75;4.97;;;17.50;99.90;;;;;;5059984;28;20090;-57
2023/09/20 02:45:13;;;;;;;13.70;5.05;;;17.50;99.90;;;;;;5066082;28;20140;-57
2023/09/20 02:47:43;;;;;;;13.77;5.57;;;17.50;99.90;;;;;;5061360;28;20048;-56
2023/09/20 02:50:11;;;;;;;12.20;4.57;;;17.60;99.90;;;;;;5063859;28;20083;-56
2023/09/20 02:52:41;;;;;;;13.88;4.15;;;17.50;99.90;;;;;;5062113;28;20681;-56
2023/09/20 02:55:08;;;;;;;10.98;4.60;;;17.60;99.90;;;;;;5045527;28;20044;-57
2023/09/20 02:57:37;;;;;;;13.07;4.80;;;17.60;99.90;;;;;;5059029;28;20470;-56
2023/09/20 03:00:15;;;;;;;11.68;4.10;;;17.50;99.90;;;;;;5061884;28;20086;-57
2023/09/20 03:02:45;;;;;;;12.73;4.15;;;17.50;99.90;;;;;;5050212;28;20044;-56
2023/09/20 03:05:13;;;;;;;10.98;3.50;;;17.50;99.90;;;;;;5060470;28;20119;-56
2023/09/20 03:07:39;;;;;;;13.32;4.00;;;17.50;99.90;;;;;;5059767;28;20036;-57
2023/09/20 03:10:06;;;;;;;9.25;3.83;;;17.50;99.90;;;;;;5065465;28;20586;-57
2023/09/20 03:12:33;;;;;;;14.15;3.90;;;17.50;99.90;;;;;;5064201;28;20053;-57
2023/09/20 03:15:04;;;;;;;10.38;4.07;;;17.50;99.90;;;;;;5062015;28;20040;-55
2023/09/20 03:17:31;;;;;;;14.93;4.53;;;17.50;99.90;;;;;;5047968;28;20043;-57
2023/09/20 03:19:57;;;;;;;13.77;4.15;;;17.50;99.90;;;;;;5054067;28;20040;-56
2023/09/20 03:22:23;;;;;;;8.50;4.47;;;17.60;99.90;;;;;;5049181;28;20127;-57
2023/09/20 03:24:48;;;;;;;9.13;4.40;;;17.60;99.90;;;;;;5057613;28;20149;-58
2023/09/20 03:27:17;;;;;;;13.50;4.82;;;17.50;99.90;;;;;;5051596;28;20047;-57
2023/09/20 03:29:46;;;;;;;13.05;4.32;;;17.50;99.90;;;;;;5033134;28;22563;-57
2023/09/20 03:32:15;;;;;;;9.15;3.65;;;17.50;99.90;;;;;;5062718;28;20048;-57
2023/09/20 03:34:41;;;;;;;11.63;4.70;;;17.50;99.90;;;;;;5047118;28;20044;-57
2023/09/20 03:37:09;;;;;;;12.95;4.75;;;17.50;99.90;;;;;;5060255;28;20075;-57
2023/09/20 03:39:40;;;;;;;11.07;4.13;;;17.50;99.90;;;;;;5049692;28;20033;-57
2023/09/20 03:42:07;;;;;;;12.43;4.00;;;17.50;99.90;;;;;;5060152;28;20057;-57
2023/09/20 03:44:33;;;;;;;11.38;4.75;;;17.50;99.90;;;;;;5061765;28;20066;-57
2023/09/20 03:46:59;;;;;;;13.07;4.55;;;17.50;99.90;;;;;;5062381;28;20076;-57
2023/09/20 03:49:25;;;;;;;9.88;4.60;;;17.50;99.90;;;;;;5046959;28;20097;-56
2023/09/20 03:51:50;;;;;;;12.82;4.13;;;17.60;99.90;;;;;;5067855;28;20487;-57
2023/09/20 03:54:16;;;;;;;17.20;4.95;;;17.50;99.90;;;;;;5059433;28;20036;-57
2023/09/20 03:56:43;;;;;;;12.32;4.93;;;17.50;99.90;;;;;;5063276;28;20459;-57
2023/09/20 03:59:12;;;;;;;10.52;4.70;;;17.50;99.90;;;;;;5061906;28;20414;-57
2023/09/20 04:01:38;;;;;;;10.98;5.07;;;17.50;99.90;;;;;;5064048;28;20112;-57
2023/09/20 04:04:05;;;;;;;12.48;5.70;;;17.50;99.90;;;;;;5058730;28;20135;-57
2023/09/20 04:06:34;;;;;;;12.23;4.57;;;17.50;99.90;;;;;;5060424;28;20040;-56
2023/09/20 04:09:09;;;;;;;12.30;4.85;;;17.50;99.90;;;;;;5061721;28;20075;-57
2023/09/20 04:11:42;;;;;;;13.35;5.03;;;17.40;99.90;;;;;;5047005;28;20040;-57
2023/09/20 04:14:08;;;;;;;9.85;4.32;;;17.40;99.90;;;;;;5059690;28;20086;-57
2023/09/20 04:16:39;;;;;;;13.50;4.78;;;17.40;99.90;;;;;;5060100;28;20043;-57
2023/09/20 04:19:06;;;;;;;12.25;4.82;;;17.40;99.90;;;;;;5060836;28;20045;-57
2023/09/20 04:21:32;;;;;;;10.38;4.40;;;17.40;99.90;;;;;;5060322;28;20052;-57
2023/09/20 04:23:59;;;;;;;18.38;6.45;;;17.40;99.90;;;;;;5058544;28;20106;-57
2023/09/20 04:26:25;;;;;;;14.32;5.00;;;17.40;99.90;;;;;;5080269;28;20076;-57
2023/09/20 04:28:52;;;;;;;13.90;4.07;;;17.30;99.90;;;;;;5063833;28;20045;-57
2023/09/20 04:31:18;;;;;;;13.18;4.72;;;17.30;99.90;;;;;;5060930;28;20040;-57
2023/09/20 04:33:44;;;;;;;13.23;4.78;;;17.30;99.90;;;;;;5062549;28;20043;-56
2023/09/20 04:36:10;;;;;;;11.30;5.00;;;17.30;99.90;;;;;;5061294;28;20037;-56
2023/09/20 04:38:35;;;;;;;12.18;4.40;;;17.20;99.90;;;;;;5062240;28;20476;-57
2023/09/20 04:41:01;;;;;;;11.18;4.63;;;17.20;99.90;;;;;;5061656;28;20041;-57
2023/09/20 04:43:27;;;;;;;17.63;4.95;;;17.20;99.90;;;;;;5058844;28;20053;-57
2023/09/20 04:45:55;;;;;;;15.15;4.75;;;17.10;99.90;;;;;;5061553;28;20489;-57
2023/09/20 04:48:21;;;;;;;12.80;4.78;;;17.10;99.90;;;;;;5058113;28;20067;-57
2023/09/20 04:50:50;;;;;;;13.52;5.03;;;17.10;99.90;;;;;;5062151;28;20704;-56
2023/09/20 04:53:16;;;;;;;11.30;4.68;;;17.10;99.90;;;;;;5035741;28;20045;-57
2023/09/20 04:55:42;;;;;;;15.93;5.15;;;17.10;99.90;;;;;;5064757;28;20067;-57
2023/09/20 04:58:08;;;;;;;12.43;5.35;;;17.10;99.90;;;;;;5056078;28;20063;-57
2023/09/20 05:00:37;;;;;;;12.65;5.20;;;17.10;99.90;;;;;;5050814;28;20483;-57
2023/09/20 05:03:03;;;;;;;14.00;5.22;;;17.10;99.90;;;;;;5058158;28;20617;-55
2023/09/20 05:05:29;;;;;;;9.82;4.20;;;17.10;99.90;;;;;;5046102;28;20037;-57
2023/09/20 05:07:56;;;;;;;10.23;5.10;;;17.00;99.90;;;;;;5057597;28;20678;-59
2023/09/20 05:10:22;;;;;;;13.18;5.38;;;17.00;99.90;;;;;;5050321;28;20036;-57
2023/09/20 05:12:48;;;;;;;12.38;4.75;;;17.00;99.90;;;;;;5058044;28;20040;-57
2023/09/20 05:15:15;;;;;;;10.55;4.80;;;17.00;99.90;;;;;;5061619;28;20047;-57
2023/09/20 05:17:43;;;;;;;11.15;4.72;;;17.00;99.90;;;;;;5056507;28;20631;-57
2023/09/20 05:20:13;;;;;;;12.30;4.22;;;17.00;99.90;;;;;;5060868;28;20404;-57
2023/09/20 05:22:39;;;;;;;11.85;4.25;;;17.00;99.90;;;;;;5061981;28;20062;-57
2023/09/20 05:25:07;;;;;;;15.18;5.65;;;17.00;99.90;;;;;;5040312;28;20049;-57
2023/09/20 05:27:34;;;;;;;15.60;4.70;;;17.00;99.90;;;;;;5057262;28;20135;-56
2023/09/20 05:30:00;;;;;;;14.50;4.90;;;17.00;99.90;;;;;;5066370;28;20036;-57
2023/09/20 05:32:26;;;;;;;8.48;4.22;;;17.00;99.90;;;;;;5057267;28;20047;-57
2023/09/20 05:34:53;;;;;;;11.98;4.47;;;17.10;99.90;;;;;;5060727;28;20072;-57
2023/09/20 05:37:18;;;;;;;12.52;4.50;;;17.10;99.90;;;;;;5054770;28;20033;-57
2023/09/20 05:39:47;;;;;;;13.10;5.03;;;17.10;99.90;;;;;;5044727;28;20090;-57
2023/09/20 05:42:14;;;;;;;14.88;4.55;;;17.10;99.90;;;;;;5045547;28;20102;-57
2023/09/20 05:44:40;;;;;;;13.30;4.88;;;17.10;99.90;;;;;;5042443;28;20037;-57
2023/09/20 05:47:08;;;;;;;11.80;4.35;;;17.10;99.90;;;;;;5054290;28;21379;-57
2023/09/20 05:49:34;;;;;;;10.68;4.50;;;17.00;99.90;;;;;;5026956;28;20033;-57
2023/09/20 05:52:02;;;;;;;11.02;4.50;;;17.00;99.90;;;;;;5063769;28;20028;-57
2023/09/20 05:54:29;;;;;;;14.38;4.50;;;17.00;99.90;;;;;;5064208;28;20121;-57
2023/09/20 05:56:54;;;;;;;9.80;4.28;;;17.00;99.90;;;;;;5062358;28;20538;-57
2023/09/20 05:59:20;;;;;;;9.40;4.40;;;17.00;99.90;;;;;;5056279;28;20041;-56
2023/09/20 06:01:46;;;;;;;12.38;4.43;;;17.00;99.90;;;;;;5052137;28;20086;-57
2023/09/20 06:04:11;;;;;;;13.80;5.55;;;17.00;99.90;;;;;;5064454;28;20067;-57
2023/09/20 06:06:38;;;;;;;10.43;4.65;;;17.00;99.90;;;;;;5062739;28;20052;-57
2023/09/20 06:09:04;;;;;;;11.57;4.90;;;17.00;99.90;;;;;;5047946;28;20106;-57
2023/09/20 06:11:31;;;;;;;10.75;3.72;;;17.00;99.90;;;;;;5035534;28;20032;-57
2023/09/20 06:13:56;;;;;;;9.55;4.38;;;17.00;99.90;;;;;;5066152;28;20056;-57
2023/09/20 06:16:22;;;;;;;14.93;4.53;;;17.00;99.90;;;;;;5049469;28;20094;-57
2023/09/20 06:18:49;;;;;;;13.70;4.72;;;16.90;99.90;;;;;;5062222;28;20119;-57
2023/09/20 06:21:17;;;;;;;12.93;4.32;;;17.00;99.90;;;;;;5062913;28;20068;-55
2023/09/20 06:23:46;;;;;;;11.85;4.53;;;16.90;99.90;;;;;;5071430;28;20041;-57
2023/09/20 06:26:13;;;;;;;9.35;3.90;;;16.90;99.90;;;;;;5064902;28;20043;-57
2023/09/20 06:28:42;;;;;;;12.48;4.50;;;17.00;99.90;;;;;;5046905;28;20072;-57
2023/09/20 06:31:13;;;;;;;9.93;3.97;;;17.00;99.90;;;;;;5047113;28;20040;-57
2023/09/20 06:33:40;;;;;;;11.90;4.10;;;16.90;99.90;;;;;;5064012;28;20045;-57
2023/09/20 06:36:06;;;;;;;9.05;3.78;;;16.90;99.90;;;;;;5052207;28;20046;-56
2023/09/20 06:38:34;;;;;;;10.95;3.97;;;16.90;99.90;;;;;;5066661;28;20129;-56
2023/09/20 06:41:00;;;;;;;15.13;3.90;;;16.90;99.90;;;;;;5050040;28;20040;-56
2023/09/20 06:43:27;;;;;;;8.95;4.28;;;17.00;99.90;;;;;;5063848;28;20055;-56
2023/09/20 06:45:53;;;;;;;12.02;3.60;;;17.00;99.90;;;;;;5065728;28;20040;-57
2023/09/20 06:48:22;;;;;;;11.60;4.07;;;17.00;99.90;;;;;;5065506;28;20044;-56
2023/09/20 06:50:54;;;;;;;9.18;3.65;;;17.00;99.90;;;;;;5039039;28;20083;-55
2023/09/20 06:53:20;;;;;;;9.88;3.78;;;17.00;99.90;;;;;;5060707;28;20068;-57
2023/09/20 06:55:48;;;;;;;7.32;3.95;;;17.00;99.90;;;;;;5049152;28;20129;-57
2023/09/20 06:58:14;;;;;;;10.88;4.03;;;17.00;99.90;;;;;;5050865;28;20036;-56
2023/09/20 07:00:39;;;;;;;9.63;3.85;;;17.00;99.90;;;;;;5033042;28;20495;-57
2023/09/20 07:03:05;;;;;;;9.52;3.58;;;17.00;99.90;;;;;;5068402;28;20040;-56
2023/09/20 07:05:31;;;;;;;8.18;3.53;;;17.00;99.90;;;;;;5043108;28;20040;-56
2023/09/20 07:08:01;;;;;;;11.20;3.90;;;17.00;99.90;;;;;;5065879;28;20048;-55
2023/09/20 07:10:29;;;;;;;8.15;3.58;;;17.00;99.90;;;;;;5053541;28;20499;-57
2023/09/20 07:12:56;;;;;;;10.07;3.40;;;17.00;99.90;;;;;;5056728;28;20055;-56
2023/09/20 07:15:24;;;;;;;7.82;3.28;;;17.00;99.90;;;;;;5062878;28;20029;-57
2023/09/20 07:18:01;;;;;;;7.97;3.55;;;17.00;99.90;;;;;;5063473;28;20041;-56
2023/09/20 07:20:31;;;;;;;8.65;3.45;;;17.10;99.90;;;;;;5065361;28;20101;-56
2023/09/20 07:22:58;;;;;;;8.73;3.67;;;17.10;99.90;;;;;;5040098;28;20049;-57
2023/09/20 07:25:27;;;;;;;12.40;3.80;;;17.10;99.90;;;;;;5064420;28;20113;-56
2023/09/20 07:27:55;;;;;;;9.20;3.80;;;17.10;99.90;;;;;;5052940;28;20048;-57
2023/09/20 07:30:22;;;;;;;13.27;4.22;;;17.20;99.90;;;;;;5046555;28;20044;-56
2023/09/20 07:32:50;;;;;;;8.07;3.65;;;17.20;99.90;;;;;;5068359;28;20093;-57
2023/09/20 07:38:02;;;;;;;12.32;4.20;;;17.30;99.90;;;;;;5052869;28;20040;-57
2023/09/20 07:40:29;;;;;;;6.47;3.60;;;17.30;99.90;;;;;;5044983;28;20044;-57
2023/09/20 07:42:59;;;;;;;7.40;3.13;;;17.30;99.90;;;;;;5052675;28;20040;-57
2023/09/20 07:45:33;;;;;;;8.07;3.55;;;17.40;99.90;;;;;;5061378;28;20032;-56
2023/09/20 07:48:00;;;;;;;8.60;3.20;;;17.40;99.90;;;;;;5066000;28;20040;-57
2023/09/20 07:50:26;;;;;;;7.70;3.40;;;17.50;99.90;;;;;;5087629;28;20464;-57
2023/09/20 07:52:52;;;;;;;9.68;3.53;;;17.50;99.90;;;;;;5049429;28;20036;-56
2023/09/20 07:55:18;;;;;;;9.40;3.40;;;17.60;99.90;;;;;;5065858;28;20045;-57
2023/09/20 07:57:43;;;;;;;8.85;3.83;;;17.60;99.90;;;;;;5063666;28;20433;-58
2023/09/20 08:00:10;;;;;;;7.75;3.35;;;17.70;99.90;;;;;;5066557;28;20093;-57
2023/09/20 08:02:38;;;;;;;7.53;3.60;;;17.70;99.90;;;;;;5037648;28;20059;-57
2023/09/20 08:05:05;;;;;;;7.22;3.50;;;17.60;99.90;;;;;;5056858;28;20102;-57
2023/09/20 08:07:31;;;;;;;7.95;4.07;;;17.70;99.90;;;;;;5060017;28;20076;-57
2023/09/20 08:09:57;;;;;;;8.68;3.13;;;17.80;99.90;;;;;;5065284;28;20088;-57
2023/09/20 08:12:23;;;;;;;7.43;4.05;;;17.80;99.90;;;;;;5047244;28;20040;-57
2023/09/20 08:14:49;;;;;;;8.05;4.32;;;17.80;99.90;;;;;;5032501;28;20040;-57
2023/09/20 08:19:58;;;;;;;9.20;3.85;;;17.80;99.90;;;;;;5066374;28;20069;-57
2023/09/20 08:22:24;;;;;;;8.95;4.13;;;17.80;99.90;;;;;;5065902;28;20071;-57
2023/09/20 09:00:35;;;;;;;9.10;4.00;;;17.90;99.90;;;;;;5062347;28;20500;-57
2023/09/20 09:03:03;;;;;;;8.95;4.32;;;17.90;99.90;;;;;;5061907;28;20074;-57
2023/09/20 09:05:30;;;;;;;7.25;4.22;;;17.80;99.90;;;;;;5072166;28;20052;-57
2023/09/20 09:08:01;;;;;;;8.20;4.07;;;17.80;99.90;;;;;;5059638;28;20123;-57
2023/09/20 09:10:28;;;;;;;13.20;4.35;;;17.80;99.90;;;;;;5059665;28;20090;-57
2023/09/20 09:12:55;;;;;;;8.07;4.13;;;17.90;99.90;;;;;;5064009;28;20053;-57
2023/09/20 09:15:23;;;;;;;8.85;3.90;;;17.90;99.90;;;;;;5066491;28;20045;-57
2023/09/20 09:17:49;;;;;;;8.35;3.70;;;18.00;99.90;;;;;;5061787;28;20050;-57
2023/09/20 09:20:18;;;;;;;8.95;4.20;;;18.00;99.90;;;;;;5063636;28;20383;-56
2023/09/20 09:22:45;;;;;;;7.75;3.90;;;18.00;99.90;;;;;;5068429;28;20040;-57
2023/09/20 09:25:12;;;;;;;6.75;3.85;;;18.00;99.90;;;;;;5051204;28;20127;-57
2023/09/20 09:27:42;;;;;;;10.40;3.63;;;18.00;99.90;;;;;;5066444;28;20047;-56
2023/09/20 09:30:14;;;;;;;8.88;4.25;;;18.00;99.90;;;;;;5063230;28;20050;-57
2023/09/20 09:32:41;;;;;;;8.90;4.63;;;18.00;99.90;;;;;;5064495;28;20049;-57
2023/09/20 09:35:08;;;;;;;8.52;3.70;;;18.00;99.90;;;;;;5064197;28;20040;-58
2023/09/20 09:37:36;;;;;;;7.93;4.07;;;18.00;99.90;;;;;;5036964;28;20036;-57
2023/09/20 09:40:14;;;;;;;7.35;4.13;;;18.10;99.90;;;;;;5065698;28;20051;-57
2023/09/20 09:42:43;;;;;;;6.05;4.30;;;18.10;99.90;;;;;;5066501;28;20052;-56
2023/09/20 09:45:09;;;;;;;7.22;3.78;;;18.10;99.90;;;;;;5046063;28;20049;-57
2023/09/20 09:47:37;;;;;;;8.27;4.20;;;18.10;99.90;;;;;;5086159;28;20075;-57
2023/09/20 09:50:06;;;;;;;7.93;4.13;;;18.20;99.90;;;;;;5061264;28;20076;-55
2023/09/20 09:52:34;;;;;;;8.20;4.15;;;18.20;99.90;;;;;;5037372;28;20197;-55
2023/09/20 09:55:00;;;;;;;8.73;4.68;;;18.30;99.90;;;;;;5051037;28;20825;-57
2023/09/20 09:57:26;;;;;;;9.20;4.15;;;18.30;99.90;;;;;;5066986;28;20071;-57
2023/09/20 09:59:53;;;;;;;5.82;3.47;;;18.30;99.90;;;;;;5063652;28;20526;-57
2023/09/20 10:02:20;;;;;;;8.27;4.05;;;18.30;99.90;;;;;;5068527;28;20655;-57
2023/09/20 10:05:01;;;;;;;5.78;4.25;;;18.30;99.90;;;;;;5067680;28;20113;-57
2023/09/20 10:07:31;;;;;;;8.93;4.10;;;18.30;99.90;;;;;;5058292;28;20116;-56
2023/09/20 10:10:12;;;;;;;10.55;4.43;;;18.30;99.90;;;;;;5064199;28;20095;-57
2023/09/20 10:12:47;;;;;;;9.82;5.43;;;18.30;99.90;;;;;;5057152;28;20047;-57
2023/09/20 10:15:14;;;;;;;7.03;4.43;;;18.30;99.90;;;;;;5061337;28;20090;-57
2023/09/20 10:18:00;;;;;;;7.85;4.97;;;18.30;99.90;;;;;;5043754;28;20433;-57
2023/09/20 10:20:58;;;;;;;6.65;4.30;;;18.30;99.90;;;;;;5060065;28;20033;-57
2023/09/20 10:23:24;;;;;;;9.45;5.65;;;18.30;99.90;;;;;;5059406;28;20408;-56
2023/09/20 10:25:49;;;;;;;8.10;4.70;;;18.20;99.90;;;;;;5044308;28;20369;-57
2023/09/20 10:28:17;;;;;;;7.55;4.75;;;18.20;99.90;;;;;;5059313;28;20086;-57
2023/09/20 10:31:01;;;;;;;7.88;4.85;;;18.30;99.90;;;;;;5047502;28;20515;-57
2023/09/20 10:33:57;;;;;;;9.63;4.70;;;18.20;99.90;;;;;;5062069;28;20040;-56
2023/09/20 10:36:24;;;;;;;6.35;4.50;;;18.20;99.90;;;;;;5033087;28;20098;-57
2023/09/20 10:39:18;;;;;;;6.43;4.85;;;18.20;99.90;;;;;;5065522;28;20597;-57
2023/09/20 10:41:45;;;;;;;7.55;4.75;;;18.20;99.90;;;;;;5035873;28;20051;-57
2023/09/20 10:44:40;;;;;;;5.88;4.00;;;18.20;99.90;;;;;;5062262;28;20461;-57
2023/09/20 10:47:13;;;;;;;7.40;5.00;;;18.20;99.90;;;;;;5061671;28;20052;-57
2023/09/20 10:49:49;;;;;;;7.18;5.00;;;18.10;99.90;;;;;;5063614;28;20045;-57
2023/09/20 10:52:33;;;;;;;6.60;4.10;;;18.10;99.90;;;;;;5037378;28;20052;-57
2023/09/20 10:55:14;;;;;;;;;;;18.20;99.90;;;;;;5064085;28;20392;-57
2023/09/20 10:57:42;;;;;;;7.82;3.90;;;18.10;99.90;;;;;;5064812;28;19920;-57
2023/09/20 11:00:08;;;;;;;7.18;3.83;;;18.20;99.90;;;;;;5057212;28;20048;-57
2023/09/20 11:02:38;;;;;;;7.70;4.85;;;18.20;99.90;;;;;;5063021;28;20045;-57
2023/09/20 11:05:07;;;;;;;7.25;4.07;;;18.20;99.90;;;;;;5063310;28;20049;-57
2023/09/20 11:07:33;;;;;;;7.57;4.18;;;18.20;99.90;;;;;;5059990;28;20040;-56
2023/09/20 11:09:59;;;;;;;4.72;3.80;;;18.20;99.90;;;;;;5055914;28;20098;-57
2023/09/20 11:12:24;;;;;;;7.00;4.22;;;18.30;99.90;;;;;;5060649;28;20128;-60
2023/09/20 11:14:51;;;;;;;8.90;4.65;;;18.30;99.90;;;;;;5060526;28;20082;-59
2023/09/20 11:17:18;;;;;;;8.15;4.70;;;18.30;99.90;;;;;;5057970;28;20052;-57
2023/09/20 11:19:45;;;;;;;10.20;4.90;;;18.30;99.90;;;;;;5062507;28;20050;-57
2023/09/20 11:22:14;;;;;;;10.52;5.43;;;18.30;99.90;;;;;;5045078;28;20048;-57
2023/09/20 11:24:43;;;;;;;8.82;5.28;;;18.30;99.90;;;;;;5062712;28;20048;-56
2023/09/20 11:27:10;;;;;;;9.10;5.20;;;18.40;99.90;;;;;;5046786;28;20048;-59
2023/09/20 11:29:38;;;;;;;10.68;4.95;;;18.40;99.90;;;;;;5062161;28;20123;-57
2023/09/20 11:32:10;;;;;;;8.18;4.93;;;18.40;99.90;;;;;;5068569;28;20044;-56
2023/09/20 11:34:48;;;;;;;7.18;5.03;;;18.40;99.90;;;;;;5055102;28;20125;-57
2023/09/20 11:37:17;;;;;;;9.00;6.55;;;18.50;99.90;;;;;;5067180;28;20035;-59
2023/09/20 11:39:48;;;;;;;7.20;5.68;;;18.50;99.90;;;;;;5054824;28;20063;-59
2023/09/20 11:42:31;;;;;;;6.22;5.63;;;18.50;99.90;;;;;;5063855;28;20044;-57
2023/09/20 11:45:07;;;;;;;10.75;5.78;;;18.50;99.90;;;;;;5063992;28;20044;-56
2023/09/20 11:47:37;;;;;;;9.38;6.13;;;18.50;99.90;;;;;;5062842;28;20091;-59
2023/09/20 11:50:06;;;;;;;12.95;7.45;;;18.50;99.90;;;;;;5062883;28;20044;-57
2023/09/20 11:52:31;;;;;;;10.50;6.03;;;18.60;99.90;;;;;;5060921;28;20094;-57
2023/09/20 11:55:04;;;;;;;9.63;5.40;;;18.50;99.90;;;;;;5064015;28;20044;-57
2023/09/20 11:57:29;;;;;;;8.68;5.70;;;18.50;99.90;;;;;;5047605;28;20120;-59
2023/09/20 11:59:55;;;;;;;7.50;5.78;;;18.50;99.90;;;;;;5055639;28;20665;-59
2023/09/20 12:02:21;;;;;;;10.10;5.68;;;18.60;99.90;;;;;;5059974;28;20052;-57
2023/09/20 12:04:52;;;;;;;8.02;6.32;;;18.50;99.90;;;;;;5064333;28;20519;-57
2023/09/20 12:07:18;;;;;;;8.23;5.88;;;18.50;99.90;;;;;;5064305;28;20036;-57
2023/09/20 12:09:44;;;;;;;7.35;5.10;;;18.50;99.90;;;;;;5058403;28;20463;-57
2023/09/20 12:12:11;;;;;;;10.02;5.63;;;18.60;99.90;;;;;;5060431;28;20036;-59
2023/09/20 12:14:39;;;;;;;7.10;4.75;;;18.50;99.90;;;;;;5057946;28;20999;-56
2023/09/20 12:17:06;;;;;;;8.68;4.65;;;18.50;99.90;;;;;;5061531;28;20040;-57
2023/09/20 12:19:32;;;;;;;7.90;4.50;;;18.50;99.90;;;;;;5060446;28;20068;-57
2023/09/20 12:22:00;;;;;;;6.88;4.78;;;18.50;99.90;;;;;;5058443;28;20130;-57
2023/09/20 12:24:26;;;;;;;8.63;4.57;;;18.50;99.90;;;;;;5044167;28;20119;-57
2023/09/20 12:26:54;;;;;;;6.88;4.45;;;18.50;99.90;;;;;;5058586;28;20124;-59
2023/09/20 12:29:20;;;;;;;8.85;5.20;;;18.60;99.90;;;;;;5059213;28;20530;-57
2023/09/20 12:31:47;;;;;;;9.43;4.63;;;18.60;99.90;;;;;;5059310;28;20040;-57
2023/09/20 12:34:14;;;;;;;7.63;4.45;;;18.60;99.90;;;;;;5063296;28;20044;-57
2023/09/20 12:36:39;;;;;;;7.75;4.20;;;18.60;99.90;;;;;;5059984;28;20072;-58
2023/09/20 12:39:08;;;;;;;7.97;4.63;;;18.50;99.90;;;;;;5061637;28;20067;-59
2023/09/20 12:41:37;;;;;;;8.02;4.82;;;18.60;99.90;;;;;;5059265;28;20080;-59
2023/09/20 12:44:03;;;;;;;6.90;4.85;;;18.50;99.90;;;;;;5060905;28;20535;-57
2023/09/20 12:46:31;;;;;;;8.18;4.80;;;18.50;99.90;;;;;;5057275;28;20084;-57
2023/09/20 12:48:57;;;;;;;7.90;5.00;;;18.50;99.90;;;;;;5044074;28;20040;-57
2023/09/20 12:51:24;;;;;;;10.45;5.32;;;18.60;99.90;;;;;;5025686;28;20076;-57
2023/09/20 12:53:50;;;;;;;6.95;5.00;;;18.60;99.90;;;;;;5064747;28;20079;-59
2023/09/20 12:56:16;;;;;;;7.13;4.82;;;18.60;99.90;;;;;;5060063;28;20491;-59
2023/09/20 12:58:42;;;;;;;10.23;5.60;;;18.60;99.90;;;;;;5081275;28;20038;-59
2023/09/20 13:01:09;;;;;;;9.05;6.05;;;18.70;99.90;;;;;;5061661;28;20044;-57
2023/09/20 13:03:40;;;;;;;8.43;5.40;;;18.70;99.90;;;;;;5042690;28;20138;-57
2023/09/20 13:06:14;;;;;;;7.18;4.90;;;18.80;99.90;;;;;;5060633;28;20120;-56
2023/09/20 13:08:44;;;;;;;;;;;18.80;99.90;;;;;;5065984;28;20443;-57
2023/09/20 13:11:10;;;;;;;7.95;4.63;;;18.90;99.90;;;;;;5065481;28;20360;-58
2023/09/20 13:13:41;;;;;;;6.43;4.72;;;18.90;99.90;;;;;;5050870;28;20044;-58
2023/09/20 13:16:09;;;;;;;9.38;5.15;;;19.10;99.90;;;;;;5064305;28;20134;-58
2023/09/20 13:18:38;;;;;;;8.02;4.53;;;19.20;99.90;;;;;;5066791;28;20114;-58
2023/09/20 13:21:04;;;;;;;9.05;4.93;;;19.30;99.90;;;;;;5069897;28;20444;-58
2023/09/20 13:23:31;;;;;;;5.85;4.05;;;19.30;99.90;;;;;;5059095;28;20040;-57
2023/09/20 13:25:56;;;;;;;7.65;4.30;;;19.40;99.90;;;;;;5070075;28;20047;-57
2023/09/20 13:28:22;;;;;;;7.88;4.78;;;19.40;99.90;;;;;;5066225;28;20052;-57
2023/09/20 13:30:48;;;;;;;7.72;4.30;;;19.50;99.90;;;;;;5054486;28;20127;-57